Time;durP1;ratioP1;P1;durP2;ratioP2;P2;SDS_P1;SDS_P2;PMS_P1;PMS_P2;Temp;Humidity;BMP_temperature;BMP_pressure;BME280_temperature;BME280_humidity;BME280_pressure;Samples;Min_cycle;Max_cycle;Signal;HPM_P1;HPM_P2
2022/12/06 00:00:37;;;;;;;;;;;4.40;99.90;;;;;;5047284;28;19928;-74
2022/12/06 00:03:03;;;;;;;;;;;4.40;99.90;;;;;;5045823;28;19921;-74
2022/12/06 00:05:29;;;;;;;;;;;4.40;99.90;;;;;;5030365;28;19928;-74
2022/12/06 00:07:55;;;;;;;;;;;4.40;99.90;;;;;;5031274;28;19921;-74
2022/12/06 00:10:21;;;;;;;;;;;4.40;99.90;;;;;;5015567;28;19924;-74
2022/12/06 00:12:46;;;;;;;;;;;4.40;99.90;;;;;;5029437;28;19925;-74
2022/12/06 00:15:12;;;;;;;;;;;4.40;99.90;;;;;;5049373;28;20011;-74
2022/12/06 00:17:38;;;;;;;;;;;4.40;99.90;;;;;;5026667;28;19929;-74
2022/12/06 00:20:04;;;;;;;;;;;4.50;99.90;;;;;;5048569;28;19921;-74
2022/12/06 00:22:30;;;;;;;;;;;4.40;99.90;;;;;;5047291;28;19921;-74
2022/12/06 00:24:55;;;;;;;;;;;4.40;99.90;;;;;;5044829;28;19929;-74
2022/12/06 00:27:21;;;;;;;;;;;4.50;99.90;;;;;;5032444;28;19921;-75
2022/12/06 00:29:47;;;;;;;;;;;4.50;99.90;;;;;;5045767;28;19943;-73
2022/12/06 00:32:12;;;;;;;;;;;4.50;99.90;;;;;;5044943;28;19925;-74
2022/12/06 00:34:38;;;;;;;;;;;4.50;99.90;;;;;;5045915;28;20398;-74
2022/12/06 00:37:03;;;;;;;;;;;4.50;99.90;;;;;;5024024;28;19921;-74
2022/12/06 00:39:29;;;;;;;;;;;4.50;99.90;;;;;;5031990;28;19931;-74
2022/12/06 00:41:55;;;;;;;;;;;4.50;99.90;;;;;;5029189;28;19920;-74
2022/12/06 00:44:20;;;;;;;;;;;4.50;99.90;;;;;;5032222;28;20519;-74
2022/12/06 00:46:46;;;;;;;;;;;4.40;99.90;;;;;;5047947;28;20023;-74
2022/12/06 00:49:12;;;;;;;;;;;4.50;99.90;;;;;;5038908;28;19929;-74
2022/12/06 00:51:38;;;;;;;;;;;4.50;99.90;;;;;;5037989;28;19925;-75
2022/12/06 00:54:04;;;;;;;;;;;4.50;99.90;;;;;;5046487;28;19920;-74
2022/12/06 00:56:30;;;;;;;;;;;4.50;99.90;;;;;;5029169;28;20011;-74
2022/12/06 00:58:55;;;;;;;;;;;4.50;99.90;;;;;;5025894;28;20036;-74
2022/12/06 01:01:22;;;;;;;;;;;4.50;99.90;;;;;;5011760;28;19971;-74
2022/12/06 01:03:52;;;;;;;;;;;4.50;99.90;;;;;;5044873;28;19925;-74
2022/12/06 01:06:18;;;;;;;;;;;4.50;99.90;;;;;;5049917;28;19921;-74
2022/12/06 01:08:44;;;;;;;;;;;4.50;99.90;;;;;;5017365;28;19978;-74
2022/12/06 01:11:11;;;;;;;;;;;4.50;99.90;;;;;;5045315;28;19960;-74
2022/12/06 01:13:37;;;;;;;;;;;4.60;99.90;;;;;;5053434;28;19932;-74
2022/12/06 01:16:03;;;;;;;;;;;4.50;99.90;;;;;;5047117;28;20416;-74
2022/12/06 01:18:29;;;;;;;;;;;4.50;99.90;;;;;;5031057;28;19927;-74
2022/12/06 01:20:55;;;;;;;;;;;4.40;99.90;;;;;;5012329;28;19928;-74
2022/12/06 01:23:20;;;;;;;;;;;4.60;99.90;;;;;;5047790;28;20053;-74
2022/12/06 01:25:50;;;;;;;;;;;4.40;99.90;;;;;;5042656;28;19947;-74
2022/12/06 01:28:16;;;;;;;;;;;4.40;99.90;;;;;;5047040;28;19924;-74
2022/12/06 01:30:41;;;;;;;;;;;4.70;99.90;;;;;;5031547;28;19935;-74
2022/12/06 01:33:07;;;;;;;;;;;4.40;99.90;;;;;;5053348;28;19963;-74
2022/12/06 01:35:32;;;;;;;;;;;4.40;99.90;;;;;;5040393;28;19933;-74
2022/12/06 01:37:58;;;;;;;;;;;4.40;99.90;;;;;;5036213;28;19929;-73
2022/12/06 01:40:23;;;;;;;;;;;4.40;99.90;;;;;;5027256;28;20394;-74
2022/12/06 01:42:49;;;;;;;;;;;5.10;99.90;;;;;;5039608;28;19921;-74
2022/12/06 01:45:14;;;;;;;;;;;4.40;99.90;;;;;;5034313;28;19939;-74
2022/12/06 01:47:41;;;;;;;;;;;4.40;99.90;;;;;;5027699;28;19921;-74
2022/12/06 01:50:13;;;;;;;;;;;4.40;99.90;;;;;;5045756;28;19933;-74
2022/12/06 01:52:47;;;;;;;;;;;4.40;99.90;;;;;;5044336;28;21188;-74
2022/12/06 01:55:14;;;;;;;;;;;4.40;99.90;;;;;;5029304;28;20355;-74
2022/12/06 01:57:39;;;;;;;;;;;4.90;99.90;;;;;;5032292;28;19925;-74
2022/12/06 02:00:06;;;;;;;;;;;4.40;99.90;;;;;;5030055;28;19928;-74
2022/12/06 02:02:34;;;;;;;;;;;4.40;99.90;;;;;;5028890;28;19990;-74
2022/12/06 02:05:01;;;;;;;;;;;4.40;99.90;;;;;;5049956;28;19920;-74
2022/12/06 02:07:28;;;;;;;;;;;4.40;99.90;;;;;;5030356;28;19947;-74
2022/12/06 02:09:53;;;;;;;;;;;4.40;99.90;;;;;;5021492;28;19925;-74
2022/12/06 02:12:19;;;;;;;;;;;4.40;99.90;;;;;;5045829;28;19981;-74
2022/12/06 02:14:47;;;;;;;;;;;4.40;99.90;;;;;;5034232;28;20577;-74
2022/12/06 02:17:13;;;;;;;;;;;4.40;99.90;;;;;;5047534;28;19978;-74
2022/12/06 02:19:39;;;;;;;;;;;4.80;99.90;;;;;;5048578;28;19933;-74
2022/12/06 02:22:15;;;;;;;;;;;4.40;99.90;;;;;;5043740;28;19929;-74
2022/12/06 02:24:55;;;;;;;;;;;4.40;99.90;;;;;;5046244;28;19920;-74
2022/12/06 02:27:32;;;;;;;;;;;4.40;99.90;;;;;;5043980;28;19932;-73
2022/12/06 02:29:58;;;;;;;;;;;4.40;99.90;;;;;;5048434;28;19933;-73
2022/12/06 02:32:33;;;;;;;;;;;4.40;99.90;;;;;;5039361;28;19931;-75
2022/12/06 02:35:03;;;;;;;;;;;4.40;99.90;;;;;;5032248;28;20011;-75
2022/12/06 02:37:32;;;;;;;;;;;4.30;99.90;;;;;;5054191;28;19921;-75
2022/12/06 02:40:04;;;;;;;;;;;4.90;99.90;;;;;;5054613;28;19928;-74
2022/12/06 02:42:30;;;;;;;;;;;4.30;99.90;;;;;;5049837;28;20574;-74
2022/12/06 02:44:58;;;;;;;;;;;4.30;99.90;;;;;;5036081;28;20007;-74
2022/12/06 02:47:28;;;;;;;;;;;4.30;99.90;;;;;;5049546;28;19928;-75
2022/12/06 02:49:54;;;;;;;;;;;4.30;99.90;;;;;;5027405;28;20035;-75
2022/12/06 02:52:23;;;;;;;;;;;4.90;99.90;;;;;;5032579;28;19963;-75
2022/12/06 02:54:49;;;;;;;;;;;4.30;99.90;;;;;;5053602;28;19993;-75
2022/12/06 02:57:14;;;;;;;;;;;4.30;99.90;;;;;;5073642;28;20043;-74
2022/12/06 02:59:49;;;;;;;;;;;4.30;99.90;;;;;;5043251;28;20366;-74
2022/12/06 03:02:14;;;;;;;;;;;4.30;99.90;;;;;;5048808;28;19929;-75
2022/12/06 03:04:48;;;;;;;;;;;4.30;99.90;;;;;;5035983;28;19921;-75
2022/12/06 03:07:32;;;;;;;;;;;4.30;99.90;;;;;;5051333;28;20012;-75
2022/12/06 03:09:58;;;;;;;;;;;4.30;99.90;;;;;;5037918;28;19925;-75
2022/12/06 03:12:29;;;;;;;;;;;4.30;99.90;;;;;;5039054;28;19927;-74
2022/12/06 03:15:17;;;;;;;;;;;4.30;99.90;;;;;;5050674;28;19936;-75
2022/12/06 03:17:51;;;;;;;;;;;4.30;99.90;;;;;;5050738;28;20357;-75
2022/12/06 03:20:26;;;;;;;;;;;4.20;99.90;;;;;;5054817;28;19943;-75
2022/12/06 03:22:56;;;;;;;;;;;4.20;99.90;;;;;;5038387;28;19927;-75
2022/12/06 03:25:22;;;;;;;;;;;4.20;99.90;;;;;;5055745;28;19921;-75
2022/12/06 03:27:48;;;;;;;;;;;4.40;99.90;;;;;;5054192;28;20439;-75
2022/12/06 03:30:14;;;;;;;;;;;4.20;99.90;;;;;;5050288;28;19925;-75
2022/12/06 03:32:42;;;;;;;;;;;4.20;99.90;;;;;;5050716;28;19969;-75
2022/12/06 03:35:10;;;;;;;;;;;4.20;99.90;;;;;;5049843;28;19921;-75
2022/12/06 03:37:37;;;;;;;;;;;4.20;99.90;;;;;;5034291;28;21395;-75
2022/12/06 03:40:06;;;;;;;;;;;4.20;99.90;;;;;;5053120;28;19944;-75
2022/12/06 03:42:32;;;;;;;;;;;4.20;99.90;;;;;;5052487;28;19943;-75
2022/12/06 03:44:58;;;;;;;;;;;4.20;99.90;;;;;;5054254;28;20378;-75
2022/12/06 03:47:36;;;;;;;;;;;4.10;99.90;;;;;;5038979;28;20037;-75
2022/12/06 03:50:04;;;;;;;;;;;4.10;99.90;;;;;;5047584;28;19932;-75
2022/12/06 03:52:30;;;;;;;;;;;4.10;99.90;;;;;;5050936;28;19921;-75
2022/12/06 03:54:56;;;;;;;;;;;4.10;99.90;;;;;;5043160;28;19920;-75
2022/12/06 03:57:21;;;;;;;;;;;4.10;99.90;;;;;;5043121;28;20484;-75
2022/12/06 03:59:47;;;;;;;;;;;4.10;99.90;;;;;;5044927;28;19921;-75
2022/12/06 04:02:12;;;;;;;;;;;4.10;99.90;;;;;;5040271;28;19933;-75
2022/12/06 04:04:39;;;;;;;;;;;4.40;99.90;;;;;;5053645;28;20441;-75
2022/12/06 04:07:05;;;;;;;;;;;4.10;99.90;;;;;;5049976;28;19928;-75
2022/12/06 04:14:59;;;;;;;;;;;4.00;99.90;;;;;;5068299;28;20614;-75
2022/12/06 04:20:09;;;;;;;;;;;4.10;99.90;;;;;;5054772;28;20007;-75
2022/12/06 04:25:19;;;;;;;;;;;4.40;99.90;;;;;;5055893;28;19921;-75
2022/12/06 04:38:44;;;;;;;;;;;4.00;99.90;;;;;;5054268;28;19967;-75
2022/12/06 04:41:10;;;;;;;;;;;4.00;99.90;;;;;;5043012;28;19921;-75
2022/12/06 04:43:41;;;;;;;;;;;4.00;99.90;;;;;;5048121;28;19927;-75
2022/12/06 04:46:07;;;;;;;;;;;4.00;99.90;;;;;;5039469;28;19921;-75
2022/12/06 04:48:33;;;;;;;;;;;4.20;99.90;;;;;;5029793;28;19932;-75
2022/12/06 04:50:58;;;;;;;;;;;4.60;99.90;;;;;;5052028;28;19929;-75
2022/12/06 04:53:24;;;;;;;;;;;4.00;99.90;;;;;;5045392;28;19974;-74
2022/12/06 04:55:50;;;;;;;;;;;4.00;99.90;;;;;;5051135;28;19963;-75
2022/12/06 04:58:16;;;;;;;;;;;4.00;99.90;;;;;;5049086;28;19927;-75
2022/12/06 05:00:42;;;;;;;;;;;4.00;99.90;;;;;;5048298;28;19925;-75
2022/12/06 05:03:09;;;;;;;;;;;3.90;99.90;;;;;;5033453;28;19928;-75
2022/12/06 05:05:34;;;;;;;;;;;4.00;99.90;;;;;;5051296;28;19925;-75
2022/12/06 05:08:00;;;;;;;;;;;3.90;99.90;;;;;;5033582;28;19920;-75
2022/12/06 05:10:26;;;;;;;;;;;4.50;99.90;;;;;;5050114;28;19928;-75
2022/12/06 05:12:51;;;;;;;;;;;3.90;99.90;;;;;;5030214;28;19957;-75
2022/12/06 05:15:17;;;;;;;;;;;4.00;99.90;;;;;;5033299;28;19917;-75
2022/12/06 05:17:42;;;;;;;;;;;3.90;99.90;;;;;;5033355;28;19948;-74
2022/12/06 05:20:08;;;;;;;;;;;3.90;99.90;;;;;;5036451;28;19981;-75
2022/12/06 05:22:34;;;;;;;;;;;3.90;99.90;;;;;;5022008;28;19944;-75
2022/12/06 05:24:59;;;;;;;;;;;3.80;99.90;;;;;;5036642;28;19921;-74
2022/12/06 05:27:25;;;;;;;;;;;4.00;99.90;;;;;;5050808;28;20554;-75
2022/12/06 05:29:50;;;;;;;;;;;3.80;99.90;;;;;;5033057;28;19978;-75
2022/12/06 05:32:16;;;;;;;;;;;4.00;99.90;;;;;;5043190;28;20397;-75
2022/12/06 05:34:42;;;;;;;;;;;3.70;99.90;;;;;;5033245;28;19929;-74
2022/12/06 05:37:07;;;;;;;;;;;3.70;99.90;;;;;;5053731;28;19928;-75
2022/12/06 05:39:33;;;;;;;;;;;3.70;99.90;;;;;;5052760;28;19921;-75
2022/12/06 05:41:58;;;;;;;;;;;3.70;99.90;;;;;;5043275;28;19928;-75
2022/12/06 05:44:24;;;;;;;;;;;3.70;99.90;;;;;;5053096;28;19944;-75
2022/12/06 05:46:49;;;;;;;;;;;3.70;99.90;;;;;;5022889;28;20022;-75
2022/12/06 05:49:15;;;;;;;;;;;4.40;99.90;;;;;;5037141;28;20016;-74
2022/12/06 05:51:40;;;;;;;;;;;3.70;99.90;;;;;;5039888;28;19928;-75
2022/12/06 05:54:06;;;;;;;;;;;3.80;99.90;;;;;;5062719;28;19973;-74
2022/12/06 05:56:32;;;;;;;;;;;3.70;99.90;;;;;;5043229;28;19932;-74
2022/12/06 05:58:58;;;;;;;;;;;3.70;99.90;;;;;;5055913;28;19929;-75
2022/12/06 06:01:23;;;;;;;;;;;3.90;99.90;;;;;;5056719;28;20397;-75
2022/12/06 06:03:49;;;;;;;;;;;3.70;99.90;;;;;;5032945;28;19935;-75
2022/12/06 06:06:15;;;;;;;;;;;4.10;99.90;;;;;;5053359;28;19951;-75
2022/12/06 06:08:40;;;;;;;;;;;4.10;99.90;;;;;;5042179;28;20394;-75
2022/12/06 06:11:06;;;;;;;;;;;3.70;99.90;;;;;;5024665;28;19943;-75
2022/12/06 06:13:31;;;;;;;;;;;3.70;99.90;;;;;;5053752;28;19921;-75
2022/12/06 06:15:57;;;;;;;;;;;3.70;99.90;;;;;;5034678;28;19932;-75
2022/12/06 06:18:22;;;;;;;;;;;3.70;99.90;;;;;;5052507;28;19952;-75
2022/12/06 06:20:52;;;;;;;;;;;3.70;99.90;;;;;;5051479;28;20015;-75
2022/12/06 06:23:18;;;;;;;;;;;3.70;99.90;;;;;;5053602;28;19928;-75
2022/12/06 06:25:44;;;;;;;;;;;3.70;99.90;;;;;;5036176;28;20971;-75
2022/12/06 06:28:10;;;;;;;;;;;3.70;99.90;;;;;;5045663;28;19929;-75
2022/12/06 06:30:35;;;;;;;;;;;3.70;99.90;;;;;;5056909;28;19943;-74
2022/12/06 06:33:01;;;;;;;;;;;3.70;99.90;;;;;;5019461;28;19967;-75
2022/12/06 06:35:26;;;;;;;;;;;3.80;99.90;;;;;;5052947;28;20396;-75
2022/12/06 06:37:52;;;;;;;;;;;3.70;99.90;;;;;;5040323;28;20019;-75
2022/12/06 06:40:18;;;;;;;;;;;4.30;99.90;;;;;;5034581;28;19928;-75
2022/12/06 06:42:43;;;;;;;;;;;3.70;99.90;;;;;;5057747;28;19936;-75
2022/12/06 06:45:09;;;;;;;;;;;4.20;99.90;;;;;;5045633;28;20409;-75
2022/12/06 06:47:35;;;;;;;;;;;3.70;99.90;;;;;;5056114;28;19966;-73
2022/12/06 06:50:00;;;;;;;;;;;3.70;99.90;;;;;;5043786;28;19925;-75
2022/12/06 06:52:26;;;;;;;;;;;3.60;99.90;;;;;;5049438;28;19979;-75
2022/12/06 06:54:51;;;;;;;;;;;4.10;99.90;;;;;;5057698;28;19912;-74
2022/12/06 06:57:17;;;;;;;;;;;4.00;99.90;;;;;;5041019;28;19932;-75
2022/12/06 06:59:44;;;;;;;;;;;3.70;99.90;;;;;;5037165;28;19921;-75
2022/12/06 07:02:13;;;;;;;;;;;3.60;99.90;;;;;;5037751;28;20378;-76
2022/12/06 07:04:38;;;;;;;;;;;4.10;99.90;;;;;;5053394;28;20382;-75
2022/12/06 07:07:04;;;;;;;;;;;3.60;99.90;;;;;;5058815;28;19936;-76
2022/12/06 07:09:30;;;;;;;;;;;3.60;99.90;;;;;;5052416;28;20357;-75
2022/12/06 07:11:56;;;;;;;;;;;3.60;99.90;;;;;;5058979;28;19986;-75
2022/12/06 07:14:21;;;;;;;;;;;3.50;99.90;;;;;;5038399;28;20325;-75
2022/12/06 07:16:47;;;;;;;;;;;3.50;99.90;;;;;;5030803;28;19928;-75
2022/12/06 07:19:13;;;;;;;;;;;3.50;99.90;;;;;;5038318;28;20024;-75
2022/12/06 07:21:38;;;;;;;;;;;3.50;99.90;;;;;;5046466;28;19931;-76
2022/12/06 07:24:04;;;;;;;;;;;4.10;99.90;;;;;;5065342;28;19933;-76
2022/12/06 07:26:29;;;;;;;;;;;3.40;99.90;;;;;;5055985;28;19921;-76
2022/12/06 07:28:56;;;;;;;;;;;3.40;99.90;;;;;;5040417;28;19924;-77
2022/12/06 07:31:23;;;;;;;;;;;4.30;99.90;;;;;;5046385;28;21859;-76
2022/12/06 07:33:53;;;;;;;;;;;3.40;99.90;;;;;;5041798;28;19920;-76
2022/12/06 07:36:19;;;;;;;;;;;3.40;99.90;;;;;;5051508;28;19928;-76
2022/12/06 07:38:48;;;;;;;;;;;3.90;99.90;;;;;;5056439;28;19921;-76
2022/12/06 07:46:44;;;;;;;;;;;3.30;99.90;;;;;;5065204;28;19942;-76
2022/12/06 07:49:10;;;;;;;;;;;3.50;99.90;;;;;;5051099;28;20394;-75
2022/12/06 07:51:36;;;;;;;;;;;4.00;99.90;;;;;;5069623;28;19920;-76
2022/12/06 07:54:01;;;;;;;;;;;3.20;99.90;;;;;;5064233;28;19921;-76
2022/12/06 07:56:27;;;;;;;;;;;3.20;99.90;;;;;;5052691;28;19943;-76
2022/12/06 07:58:52;;;;;;;;;;;3.20;99.90;;;;;;5074954;28;19975;-76
2022/12/06 08:01:18;;;;;;;;;;;3.30;99.90;;;;;;5071795;28;19989;-76
2022/12/06 08:03:44;;;;;;;;;;;3.10;99.90;;;;;;5072678;28;19924;-76
2022/12/06 08:06:09;;;;;;;;;;;3.00;99.90;;;;;;5051053;28;19921;-76
2022/12/06 08:08:35;;;;;;;;;;;3.00;99.90;;;;;;5066287;28;19931;-76
2022/12/06 08:11:01;;;;;;;;;;;3.00;99.90;;;;;;5068484;28;19935;-76
2022/12/06 08:13:27;;;;;;;;;;;3.40;99.90;;;;;;5077717;28;19920;-74
2022/12/06 08:15:53;;;;;;;;;;;2.80;99.90;;;;;;5066175;28;19929;-76
2022/12/06 08:18:19;;;;;;;;;;;2.70;99.90;;;;;;5075798;28;19913;-75
2022/12/06 08:20:45;;;;;;;;;;;2.70;99.90;;;;;;5078513;28;19929;-75
2022/12/06 08:23:11;;;;;;;;;;;2.70;99.90;;;;;;5062669;28;19990;-75
2022/12/06 08:25:36;;;;;;;;;;;2.60;99.90;;;;;;5036102;28;19921;-75
2022/12/06 08:28:02;;;;;;;;;;;2.60;99.90;;;;;;5066192;28;20064;-75
2022/12/06 08:30:28;;;;;;;;;;;2.50;99.90;;;;;;5067267;28;19939;-76
2022/12/06 08:32:54;;;;;;;;;;;2.90;99.90;;;;;;5062961;28;19921;-75
2022/12/06 08:35:19;;;;;;;;;;;2.50;99.90;;;;;;5077093;28;19943;-76
2022/12/06 08:37:45;;;;;;;;;;;2.50;99.90;;;;;;5036713;28;19924;-76
2022/12/06 08:40:10;;;;;;;;;;;2.40;99.90;;;;;;5053320;28;19947;-75
2022/12/06 08:42:36;;;;;;;;;;;2.40;99.90;;;;;;5054701;28;19908;-77
2022/12/06 08:45:02;;;;;;;;;;;2.90;99.90;;;;;;5045592;28;19931;-77
2022/12/06 08:47:27;;;;;;;;;;;2.40;99.90;;;;;;5080538;28;19925;-77
2022/12/06 08:49:53;;;;;;;;;;;2.40;99.90;;;;;;5040559;28;19928;-77
2022/12/06 08:52:19;;;;;;;;;;;2.50;99.90;;;;;;5040739;28;20003;-77
2022/12/06 08:54:44;;;;;;;;;;;3.00;99.90;;;;;;5036824;28;20285;-77
2022/12/06 08:57:10;;;;;;;;;;;3.90;99.90;;;;;;5042723;28;20476;-77
2022/12/06 08:59:35;;;;;;;;;;;5.10;99.90;;;;;;5037748;28;19974;-77
2022/12/06 09:02:01;;;;;;;;;;;6.10;99.90;;;;;;5047869;28;20390;-77
2022/12/06 09:04:27;;;;;;;;;;;6.70;99.90;;;;;;5035550;28;19928;-78
2022/12/06 09:06:52;;;;;;;;;;;8.10;99.90;;;;;;5057671;28;20409;-76
2022/12/06 09:09:18;;;;;;;;;;;8.50;99.90;;;;;;5035373;28;19921;-78
2022/12/06 09:11:44;;;;;;;;;;;9.10;99.90;;;;;;5067372;28;19925;-78
2022/12/06 09:14:13;;;;;;;;;;;9.50;99.90;;;;;;5049034;28;19921;-79
2022/12/06 09:16:40;;;;;;;;;;;9.50;99.90;;;;;;5042406;28;19927;-78
2022/12/06 09:19:05;;;;;;;;;;;9.40;99.90;;;;;;5061225;28;19925;-79
2022/12/06 09:21:32;;;;;;;;;;;9.10;99.90;;;;;;5036603;28;19983;-76
2022/12/06 09:23:58;;;;;;;;;;;8.80;99.90;;;;;;5035697;28;19921;-76
2022/12/06 09:26:24;;;;;;;;;;;8.60;99.90;;;;;;5037925;28;20011;-75
2022/12/06 09:28:50;;;;;;;;;;;8.40;99.90;;;;;;5053782;28;19968;-74
2022/12/06 09:31:16;;;;;;;;;;;8.30;99.90;;;;;;5051570;28;19964;-74
2022/12/06 09:33:42;;;;;;;;;;;8.20;99.90;;;;;;5064844;28;20142;-75
2022/12/06 09:36:24;;;;;;;;;;;8.10;99.90;;;;;;5051694;28;20363;-75
2022/12/06 09:38:52;;;;;;;;;;;8.20;99.90;;;;;;5036663;28;19921;-75
2022/12/06 09:41:29;;;;;;;;;;;8.10;99.90;;;;;;5053794;28;19971;-79
2022/12/06 09:43:58;;;;;;;;;;;7.90;99.90;;;;;;5054760;28;19969;-78
2022/12/06 09:46:35;;;;;;;;;;;7.20;99.90;;;;;;5060390;28;20023;-75
2022/12/06 09:49:00;;;;;;;;;;;6.60;99.90;;;;;;5039242;28;19921;-75
2022/12/06 09:51:33;;;;;;;;;;;6.50;99.90;;;;;;5050180;28;19933;-76
2022/12/06 09:53:58;;;;;;;;;;;6.90;99.90;;;;;;5046999;28;20747;-75
2022/12/06 09:56:28;;;;;;;;;;;6.90;99.90;;;;;;5053278;28;20059;-76
2022/12/06 09:58:56;;;;;;;;;;;6.60;99.90;;;;;;5054368;28;19928;-75
2022/12/06 10:01:29;;;;;;;;;;;6.20;99.90;;;;;;5054420;28;20598;-75
2022/12/06 10:04:03;;;;;;;;;;;6.10;99.90;;;;;;5056838;28;19944;-75
2022/12/06 10:06:35;;;;;;;;;;;5.70;99.90;;;;;;5038633;28;19925;-76
2022/12/06 10:09:03;;;;;;;;;;;5.70;99.90;;;;;;5035740;28;19921;-76
2022/12/06 10:11:58;;;;;;;;;;;5.40;99.90;;;;;;5059898;28;19988;-76
2022/12/06 10:14:25;;;;;;;;;;;5.20;99.90;;;;;;4994947;28;19946;-75
2022/12/06 10:17:06;;;;;;;;;;;5.00;99.90;;;;;;5053131;28;19921;-76
2022/12/06 10:19:47;;;;;;;;;;;5.10;99.90;;;;;;5042412;28;19944;-75
2022/12/06 10:22:42;;;;;;;;;;;5.00;99.90;;;;;;5033996;28;20444;-75
2022/12/06 10:25:26;;;;;;;;;;;4.90;99.90;;;;;;4964757;28;19928;-75
2022/12/06 10:28:09;;;;;;;;;;;4.80;99.90;;;;;;5052375;28;19974;-75
2022/12/06 10:30:38;;;;;;;;;;;4.80;99.90;;;;;;5058039;28;19928;-76
2022/12/06 10:33:08;;;;;;;;;;;5.10;99.90;;;;;;5050073;28;20019;-75
2022/12/06 10:35:54;;;;;;;;;;;4.80;99.90;;;;;;5051509;28;19982;-75
2022/12/06 10:38:29;;;;;;;;;;;4.80;99.90;;;;;;5058229;28;20092;-75
2022/12/06 10:41:02;;;;;;;;;;;4.90;99.90;;;;;;5041282;28;19971;-75
2022/12/06 10:43:40;;;;;;;;;;;4.90;99.90;;;;;;5046838;28;19936;-75
2022/12/06 10:49:12;;;;;;;;;;;5.20;99.90;;;;;;5052290;28;19927;-76
2022/12/06 10:51:45;;;;;;;;;;;5.00;99.90;;;;;;5050442;28;19975;-74
2022/12/06 10:54:16;;;;;;;;;;;5.10;99.90;;;;;;5036091;28;19929;-75
2022/12/06 10:56:43;;;;;;;;;;;5.20;99.90;;;;;;5045935;28;19920;-75
2022/12/06 10:59:26;;;;;;;;;;;5.30;99.90;;;;;;5041490;28;19927;-75
2022/12/06 11:01:51;;;;;;;;;;;5.40;99.90;;;;;;5045719;28;19951;-76
2022/12/06 11:04:46;;;;;;;;;;;5.40;99.90;;;;;;5053259;28;20340;-75
2022/12/06 11:07:24;;;;;;;;;;;5.40;99.90;;;;;;5043734;28;19927;-75
2022/12/06 11:09:51;;;;;;;;;;;5.40;99.90;;;;;;5044566;28;19942;-75
2022/12/06 11:12:32;;;;;;;;;;;5.40;99.90;;;;;;5058083;28;19924;-76
2022/12/06 11:15:10;;;;;;;;;;;5.30;99.90;;;;;;5039594;28;19921;-75
2022/12/06 11:17:37;;;;;;;;;;;5.30;99.90;;;;;;5037011;28;19920;-75
2022/12/06 11:20:14;;;;;;;;;;;5.20;99.90;;;;;;5059850;28;19976;-75
2022/12/06 11:23:04;;;;;;;;;;;5.30;99.90;;;;;;5053774;28;19931;-75
2022/12/06 11:25:42;;;;;;;;;;;5.90;99.90;;;;;;5044177;28;19921;-75
2022/12/06 11:28:20;;;;;;;;;;;5.30;99.90;;;;;;5059218;28;20011;-75
2022/12/06 11:30:45;;;;;;;;;;;5.60;99.90;;;;;;5054914;28;19933;-74
2022/12/06 11:33:11;;;;;;;;;;;5.50;99.90;;;;;;5041888;28;19928;-75
2022/12/06 11:35:45;;;;;;;;;;;5.50;99.90;;;;;;5041648;28;19966;-75
2022/12/06 11:38:11;;;;;;;;;;;5.40;99.90;;;;;;5053883;28;19920;-75
2022/12/06 11:40:39;;;;;;;;;;;5.50;99.90;;;;;;5058104;28;20385;-75
2022/12/06 11:43:07;;;;;;;;;;;5.50;99.90;;;;;;5060309;28;20400;-76
2022/12/06 11:45:34;;;;;;;;;;;5.70;99.90;;;;;;5041251;28;19928;-75
2022/12/06 11:48:01;;;;;;;;;;;5.80;99.90;;;;;;5065597;28;19920;-75
2022/12/06 11:50:31;;;;;;;;;;;5.90;99.90;;;;;;5062353;28;19932;-75
2022/12/06 11:53:02;;;;;;;;;;;6.00;99.90;;;;;;5051693;28;19925;-75
2022/12/06 11:55:34;;;;;;;;;;;6.00;99.90;;;;;;5058846;28;19921;-75
2022/12/06 11:58:08;;;;;;;;;;;6.00;99.90;;;;;;5054699;28;19928;-75
2022/12/06 12:00:33;;;;;;;;;;;5.90;99.90;;;;;;5066731;28;20019;-75
2022/12/06 12:02:59;;;;;;;;;;;5.90;99.90;;;;;;5047218;28;20287;-76
2022/12/06 12:05:29;;;;;;;;;;;6.00;99.90;;;;;;5057945;28;19978;-76
2022/12/06 12:08:00;;;;;;;;;;;5.80;99.90;;;;;;5063928;28;19920;-76
2022/12/06 12:10:26;;;;;;;;;;;5.70;99.90;;;;;;5058372;28;19920;-75
2022/12/06 12:15:36;;;;;;;;;;;5.70;99.90;;;;;;5066343;28;19927;-75
2022/12/06 12:18:02;;;;;;;;;;;5.70;99.90;;;;;;5045085;28;19921;-75
2022/12/06 12:20:46;;;;;;;;;;;5.80;99.90;;;;;;5051925;28;19932;-76
2022/12/06 12:23:16;;;;;;;;;;;5.90;99.90;;;;;;5064737;28;19928;-75
2022/12/06 12:25:42;;;;;;;;;;;5.90;99.90;;;;;;5037329;28;19921;-75
2022/12/06 12:28:26;;;;;;;;;;;5.90;99.90;;;;;;5039467;28;19928;-76
2022/12/06 12:30:56;;;;;;;;;;;5.90;99.90;;;;;;5050717;28;19925;-75
2022/12/06 12:33:22;;;;;;;;;;;6.00;99.90;;;;;;5051282;28;20062;-77
2022/12/06 12:35:52;;;;;;;;;;;6.00;99.90;;;;;;5036261;28;19921;-76
2022/12/06 12:38:21;;;;;;;;;;;6.00;99.90;;;;;;5052701;28;20409;-76
2022/12/06 12:40:52;;;;;;;;;;;6.10;99.90;;;;;;5055872;28;19921;-77
2022/12/06 12:43:25;;;;;;;;;;;6.00;99.90;;;;;;5050771;28;20030;-77
2022/12/06 12:46:06;;;;;;;;;;;6.10;99.90;;;;;;5059846;28;19927;-75
2022/12/06 12:48:32;;;;;;;;;;;6.10;99.90;;;;;;5039875;28;19927;-77
2022/12/06 12:50:59;;;;;;;;;;;6.50;99.90;;;;;;5035634;28;19925;-76
2022/12/06 12:53:34;;;;;;;;;;;6.00;99.90;;;;;;5041211;28;20376;-76
2022/12/06 12:56:06;;;;;;;;;;;6.00;99.90;;;;;;5040469;28;19943;-77
2022/12/06 12:58:31;;;;;;;;;;;6.00;99.90;;;;;;5060896;28;19921;-77
2022/12/06 13:01:00;;;;;;;;;;;6.10;99.90;;;;;;5042799;28;19928;-77
2022/12/06 13:03:26;;;;;;;;;;;6.00;99.90;;;;;;5053552;28;19928;-75
2022/12/06 13:05:52;;;;;;;;;;;5.90;99.90;;;;;;5050190;28;19921;-75
2022/12/06 13:08:28;;;;;;;;;;;5.90;99.90;;;;;;5051724;28;19986;-75
2022/12/06 13:10:55;;;;;;;;;;;5.80;99.90;;;;;;5033919;28;19933;-75
2022/12/06 13:13:42;;;;;;;;;;;5.90;99.90;;;;;;5052945;28;19921;-75
2022/12/06 13:16:10;;;;;;;;;;;5.80;99.90;;;;;;5051192;28;19999;-75
2022/12/06 13:18:38;;;;;;;;;;;6.00;99.90;;;;;;5049956;28;20421;-74
2022/12/06 13:21:10;;;;;;;;;;;6.00;99.90;;;;;;5046731;28;19929;-75
2022/12/06 13:23:36;;;;;;;;;;;6.00;99.90;;;;;;5050407;28;19921;-74
2022/12/06 13:26:01;;;;;;;;;;;6.10;99.90;;;;;;5034430;28;19982;-76
2022/12/06 13:28:30;;;;;;;;;;;6.10;99.90;;;;;;5044062;28;19928;-77
2022/12/06 13:30:59;;;;;;;;;;;6.00;99.90;;;;;;5026087;28;19982;-74
2022/12/06 13:33:26;;;;;;;;;;;5.90;99.90;;;;;;5029485;28;19946;-75
2022/12/06 13:35:54;;;;;;;;;;;5.80;99.90;;;;;;5040449;28;19979;-75
2022/12/06 13:38:22;;;;;;;;;;;5.70;99.90;;;;;;5023166;28;19928;-75
2022/12/06 13:40:52;;;;;;;;;;;5.60;99.90;;;;;;5028685;28;21396;-76
2022/12/06 13:43:23;;;;;;;;;;;5.50;99.90;;;;;;5039087;28;19956;-74
2022/12/06 13:45:53;;;;;;;;;;;5.50;99.90;;;;;;5036049;28;21271;-76
2022/12/06 13:48:25;;;;;;;;;;;5.40;99.90;;;;;;5041126;28;19924;-75
2022/12/06 13:50:52;;;;;;;;;;;5.40;99.90;;;;;;5038585;28;19956;-77
2022/12/06 13:53:18;;;;;;;;;;;5.40;99.90;;;;;;5042609;28;19928;-76
2022/12/06 13:55:48;;;;;;;;;;;5.50;99.90;;;;;;5024547;28;19964;-74
2022/12/06 13:58:16;;;;;;;;;;;5.40;99.90;;;;;;5027369;28;19928;-81
2022/12/06 14:00:42;;;;;;;;;;;5.30;99.90;;;;;;5024993;28;19920;-78
2022/12/06 14:03:16;;;;;;;;;;;5.30;99.90;;;;;;5025481;28;19921;-75
2022/12/06 14:06:02;;;;;;;;;;;5.30;99.90;;;;;;5023750;28;20011;-77
2022/12/06 14:08:33;;;;;;;;;;;5.30;99.90;;;;;;5018934;28;19924;-77
2022/12/06 14:11:05;;;;;;;;;;;5.20;99.90;;;;;;5037402;28;19990;-84
2022/12/06 14:13:31;;;;;;;;;;;5.30;99.90;;;;;;5023148;28;20378;-78
2022/12/06 14:15:56;;;;;;;;;;;5.20;99.90;;;;;;5023466;28;19928;-79
2022/12/06 14:18:24;;;;;;;;;;;5.20;99.90;;;;;;5022607;28;19925;-77
2022/12/06 14:20:50;;;;;;;;;;;5.20;99.90;;;;;;5023541;28;19939;-78
2022/12/06 14:23:30;;;;;;;;;;;5.20;99.90;;;;;;5037883;28;19921;-78
2022/12/06 14:26:12;;;;;;;;;;;5.20;99.90;;;;;;5023408;28;20337;-76
2022/12/06 14:28:38;;;;;;;;;;;5.20;99.90;;;;;;5039533;28;19921;-76
2022/12/06 14:31:04;;;;;;;;;;;5.20;99.90;;;;;;5025883;28;20397;-76
2022/12/06 14:33:30;;;;;;;;;;;5.20;99.90;;;;;;5023572;28;20256;-78
2022/12/06 14:35:55;;;;;;;;;;;5.20;99.90;;;;;;5037205;28;19966;-77
2022/12/06 14:38:21;;;;;;;;;;;5.20;99.90;;;;;;5045170;28;19967;-77
2022/12/06 14:43:32;;;;;;;;;;;5.20;99.90;;;;;;5049601;28;19925;-76
2022/12/06 14:45:59;;;;;;;;;;;5.20;99.90;;;;;;5035868;28;20011;-76
2022/12/06 14:48:25;;;;;;;;;;;5.20;99.90;;;;;;5032641;28;20011;-77
2022/12/06 14:50:54;;;;;;;;;;;5.20;99.90;;;;;;5016304;28;20015;-77
2022/12/06 14:53:33;;;;;;;;;;;5.20;99.90;;;;;;5047653;28;19924;-76
2022/12/06 14:56:03;;;;;;;;;;;5.20;99.90;;;;;;5050839;28;19990;-77
2022/12/06 14:58:31;;;;;;;;;;;5.20;99.90;;;;;;5029292;28;19929;-76
2022/12/06 15:00:57;;;;;;;;;;;5.20;99.90;;;;;;5035460;28;20382;-77
2022/12/06 15:03:22;;;;;;;;;;;5.20;99.90;;;;;;5051625;28;19931;-76
2022/12/06 15:05:50;;;;;;;;;;;5.20;99.90;;;;;;5050654;28;19924;-76
2022/12/06 15:08:25;;;;;;;;;;;5.20;99.90;;;;;;5039852;28;20290;-77
2022/12/06 15:10:57;;;;;;;;;;;5.20;99.90;;;;;;5053756;28;20415;-77
2022/12/06 15:13:23;;;;;;;;;;;5.20;99.90;;;;;;5032253;28;19936;-77